createdAt,value
2019-01-10T00:02:29.283Z,3.41
2019-01-10T00:05:00.678Z,3.40
2019-01-10T00:07:32.096Z,3.39
2019-01-10T00:10:03.652Z,3.38
2019-01-10T00:12:39.577Z,3.34
2019-01-10T00:15:13.743Z,3.40
2019-01-10T00:17:45.223Z,3.41
2019-01-10T00:20:18.270Z,3.41
2019-01-10T00:22:49.508Z,3.39
2019-01-10T00:25:20.675Z,3.38
2019-01-10T00:27:51.980Z,3.35
2019-01-10T00:30:23.424Z,3.36
2019-01-10T00:32:54.659Z,3.32
2019-01-10T00:35:26.170Z,3.36
2019-01-10T00:37:57.724Z,3.33
2019-01-10T00:40:28.994Z,3.34
2019-01-10T00:43:00.384Z,3.24
2019-01-10T00:45:31.546Z,3.32
2019-01-10T00:48:02.798Z,3.30
2019-01-10T00:50:34.100Z,3.30
2019-01-10T00:53:05.318Z,3.31
2019-01-10T00:55:36.517Z,3.30
2019-01-10T00:58:07.948Z,3.27
2019-01-10T01:00:39.841Z,3.28
2019-01-10T01:03:11.197Z,3.28
2019-01-10T01:05:42.529Z,3.28
2019-01-10T01:08:13.805Z,3.28
2019-01-10T01:10:45.121Z,3.27
2019-01-10T01:13:16.431Z,3.27
2019-01-10T01:15:47.582Z,3.27
2019-01-10T01:18:19.870Z,3.27
2019-01-10T01:20:51.094Z,3.27
2019-01-10T01:23:22.304Z,3.26
2019-01-10T01:25:53.558Z,3.25
2019-01-10T01:28:24.836Z,3.24
2019-01-10T01:30:56.000Z,3.23
2019-01-10T01:33:27.241Z,3.23
2019-01-10T01:35:58.670Z,3.23
2019-01-10T01:38:29.939Z,3.25
2019-01-10T01:41:01.244Z,3.18
2019-01-10T01:43:32.503Z,3.21
2019-01-10T01:46:03.909Z,3.21
2019-01-10T01:48:35.198Z,3.20
2019-01-10T01:51:06.535Z,3.19
2019-01-10T01:53:37.771Z,3.19
2019-01-10T01:56:08.949Z,3.19
2019-01-10T01:58:40.164Z,3.18
2019-01-10T02:01:11.408Z,3.17
2019-01-10T02:03:42.617Z,3.16
2019-01-10T02:06:13.906Z,3.13
2019-01-10T02:08:45.073Z,3.17
2019-01-10T02:11:16.369Z,3.17
2019-01-10T02:13:47.653Z,3.16
2019-01-10T02:16:18.896Z,3.14
2019-01-10T02:18:50.241Z,3.14
2019-01-10T02:21:21.460Z,3.11
2019-01-10T02:23:52.708Z,3.10
2019-01-10T02:26:23.930Z,3.08
2019-01-10T02:28:55.179Z,3.08
2019-01-10T02:31:26.393Z,3.12
2019-01-10T02:33:57.558Z,3.08
2019-01-10T02:36:28.766Z,3.09
2019-01-10T02:39:00.005Z,3.02
2019-01-10T02:41:31.316Z,3.02
2019-01-10T02:44:02.791Z,3.00
2019-01-10T02:46:34.079Z,3.00
2019-01-10T02:49:05.636Z,3.04
2019-01-10T02:51:37.187Z,2.99
2019-01-10T02:54:08.689Z,2.99
2019-01-10T02:56:40.014Z,2.96
2019-01-10T02:59:11.295Z,2.94
2019-01-10T03:01:44.249Z,2.92
2019-01-10T03:04:15.769Z,2.93
2019-01-10T03:06:46.960Z,2.88
2019-01-10T03:09:18.261Z,2.92
2019-01-10T03:11:49.480Z,2.91
2019-01-10T03:14:20.720Z,2.90
2019-01-10T03:16:51.970Z,2.90
2019-01-10T03:19:23.426Z,2.90
2019-01-10T03:21:54.615Z,2.88
2019-01-10T03:24:25.856Z,2.86
2019-01-10T03:26:57.153Z,2.86
2019-01-10T03:29:28.304Z,2.88
2019-01-10T03:31:59.629Z,2.87
2019-01-10T03:34:31.069Z,2.84
2019-01-10T03:37:03.473Z,2.83
2019-01-10T03:39:34.674Z,2.83
2019-01-10T03:42:05.956Z,2.84
2019-01-10T03:44:37.180Z,2.82
2019-01-10T03:47:08.366Z,2.82
2019-01-10T03:49:39.658Z,2.81
2019-01-10T03:52:11.020Z,2.86
2019-01-10T03:54:42.233Z,2.86
2019-01-10T03:57:13.524Z,2.89
2019-01-10T03:59:44.778Z,2.90
2019-01-10T04:02:16.051Z,2.89
2019-01-10T04:04:50.415Z,2.87
2019-01-10T04:07:21.699Z,2.87
2019-01-10T04:09:52.892Z,2.88
2019-01-10T04:12:24.122Z,2.88
2019-01-10T04:14:55.270Z,2.90
2019-01-10T04:17:26.613Z,2.90
2019-01-10T04:19:57.894Z,2.89
2019-01-10T04:22:29.071Z,2.87
2019-01-10T04:25:00.318Z,2.87
2019-01-10T04:27:31.657Z,2.87
2019-01-10T04:30:02.825Z,2.88
2019-01-10T04:32:34.034Z,2.87
2019-01-10T04:35:05.827Z,2.81
2019-01-10T04:37:37.273Z,2.81
2019-01-10T04:40:10.731Z,2.78
2019-01-10T04:42:41.950Z,2.78
2019-01-10T04:45:13.799Z,2.81
2019-01-10T04:47:44.978Z,2.80
2019-01-10T04:50:16.602Z,2.77
2019-01-10T04:52:48.911Z,2.76
2019-01-10T04:55:20.164Z,2.77
2019-01-10T04:57:53.048Z,2.77
2019-01-10T05:00:25.619Z,2.77
2019-01-10T05:02:56.798Z,2.76
2019-01-10T05:05:27.980Z,2.75
2019-01-10T05:07:59.285Z,2.72
2019-01-10T05:10:30.474Z,2.72
2019-01-10T05:13:02.706Z,2.69
2019-01-10T05:15:34.011Z,2.66
2019-01-10T05:18:05.447Z,2.67
2019-01-10T05:20:36.859Z,2.67
2019-01-10T05:23:08.074Z,2.62
2019-01-10T05:25:39.328Z,2.61
2019-01-10T05:28:10.515Z,2.66
2019-01-10T05:30:41.831Z,2.67
2019-01-10T05:33:13.082Z,2.67
2019-01-10T05:35:44.314Z,2.67
2019-01-10T05:38:15.572Z,2.69
2019-01-10T05:40:47.876Z,2.69
2019-01-10T05:43:19.270Z,2.71
2019-01-10T05:45:50.538Z,2.68
2019-01-10T05:48:21.810Z,2.68
2019-01-10T05:50:53.054Z,2.69
2019-01-10T05:53:24.324Z,2.69
2019-01-10T05:55:55.586Z,2.71
2019-01-10T05:58:26.799Z,2.65
2019-01-10T06:00:58.233Z,2.65
2019-01-10T06:03:29.552Z,2.70
2019-01-10T06:06:00.887Z,2.71
2019-01-10T06:08:32.195Z,2.70
2019-01-10T06:11:03.481Z,2.72
2019-01-10T06:13:34.902Z,2.71
2019-01-10T06:16:06.186Z,2.71
2019-01-10T06:18:37.442Z,2.66
2019-01-10T06:21:08.660Z,2.71
2019-01-10T06:23:40.058Z,2.71
2019-01-10T06:26:11.367Z,2.71
2019-01-10T06:28:42.698Z,2.71
2019-01-10T06:31:13.944Z,2.71
2019-01-10T06:33:45.199Z,2.70
2019-01-10T06:36:16.500Z,2.69
2019-01-10T06:38:47.770Z,2.64
2019-01-10T06:41:19.024Z,2.61
2019-01-10T06:43:50.349Z,2.54
2019-01-10T06:46:21.645Z,2.54
2019-01-10T06:48:53.428Z,2.50
2019-01-10T06:51:24.727Z,2.49
2019-01-10T06:53:55.992Z,2.48
2019-01-10T06:56:27.274Z,2.47
2019-01-10T06:58:58.596Z,2.45
2019-01-10T07:01:29.846Z,2.44
2019-01-10T07:04:01.054Z,2.44
2019-01-10T07:06:32.335Z,2.44
2019-01-10T07:09:04.819Z,2.41
2019-01-10T07:11:36.119Z,2.37
2019-01-10T07:14:07.460Z,2.32
2019-01-10T07:16:38.821Z,2.30
2019-01-10T07:19:10.087Z,2.25
2019-01-10T07:21:56.994Z,2.20
2019-01-10T07:24:29.309Z,2.16
2019-01-10T07:27:00.807Z,2.10
2019-01-10T07:29:32.171Z,2.07
2019-01-10T07:32:03.405Z,2.04
2019-01-10T07:34:34.679Z,2.01
2019-01-10T07:37:12.656Z,1.99
2019-01-10T07:39:39.662Z,2.00
2019-01-10T07:42:10.845Z,1.96
2019-01-10T07:44:42.108Z,1.92
2019-01-10T07:47:13.427Z,1.88
2019-01-10T07:49:44.657Z,1.84
2019-01-10T07:52:16.162Z,1.78
2019-01-10T07:54:47.346Z,1.72
2019-01-10T07:57:18.569Z,1.68
2019-01-10T07:59:49.817Z,1.66
2019-01-10T08:02:21.049Z,1.67
2019-01-10T08:04:52.331Z,1.67
2019-01-10T08:07:23.551Z,1.71
2019-01-10T08:09:55.023Z,1.72
2019-01-10T08:12:26.179Z,1.73
2019-01-10T08:14:57.422Z,1.74
2019-01-10T08:17:28.631Z,1.77
2019-01-10T08:19:59.899Z,1.82
2019-01-10T08:22:31.118Z,1.88
2019-01-10T08:25:02.431Z,1.92
2019-01-10T08:27:33.609Z,1.94
2019-01-10T08:30:07.223Z,1.94
2019-01-10T08:32:38.560Z,1.94
2019-01-10T08:35:10.554Z,1.95
2019-01-10T08:37:41.777Z,1.95
2019-01-10T08:40:13.609Z,1.96
2019-01-10T08:42:44.809Z,1.99
2019-01-10T08:45:21.509Z,2.03
2019-01-10T08:47:49.036Z,2.07
2019-01-10T08:50:25.320Z,2.14
2019-01-10T08:52:56.803Z,2.18
2019-01-10T08:55:27.958Z,2.23
2019-01-10T08:57:59.149Z,2.29
2019-01-10T09:00:30.596Z,2.33
2019-01-10T09:03:01.921Z,2.36
2019-01-10T09:05:33.115Z,2.36
2019-01-10T09:08:04.363Z,2.35
2019-01-10T09:10:36.243Z,2.35
2019-01-10T09:13:07.526Z,2.37
2019-01-10T09:15:38.782Z,2.40
2019-01-10T09:18:09.994Z,2.45
2019-01-10T09:20:41.190Z,2.51
2019-01-10T09:23:12.414Z,2.56
2019-01-10T09:25:43.693Z,2.59
2019-01-10T09:28:15.103Z,2.64
2019-01-10T09:30:46.235Z,2.65
2019-01-10T09:33:17.534Z,2.69
2019-01-10T09:35:48.786Z,2.73
2019-01-10T09:38:19.914Z,2.77
2019-01-10T09:40:51.186Z,2.83
2019-01-10T09:43:22.371Z,2.88
2019-01-10T09:45:53.654Z,2.93
2019-01-10T09:48:24.877Z,2.96
2019-01-10T09:50:56.044Z,3.02
2019-01-10T09:53:27.211Z,3.02
2019-01-10T09:55:58.491Z,3.03
2019-01-10T09:58:29.737Z,3.05
2019-01-10T10:01:00.944Z,3.07
2019-01-10T10:03:32.380Z,3.11
2019-01-10T10:06:08.017Z,3.15
2019-01-10T10:08:36.563Z,3.21
2019-01-10T10:11:07.896Z,3.21
2019-01-10T10:13:39.300Z,3.24
2019-01-10T10:16:10.697Z,3.28
2019-01-10T10:18:41.873Z,3.34
2019-01-10T10:21:13.135Z,3.36
2019-01-10T10:23:44.426Z,3.44
2019-01-10T10:26:15.661Z,3.44
2019-01-10T10:28:47.099Z,3.47
2019-01-10T10:31:18.455Z,3.50
2019-01-10T10:33:50.684Z,3.51
2019-01-10T10:36:22.287Z,3.49
2019-01-10T10:38:53.604Z,3.49
2019-01-10T10:41:24.768Z,3.54
2019-01-10T10:43:55.959Z,3.55
2019-01-10T10:46:27.164Z,3.55
2019-01-10T10:48:58.388Z,3.58
2019-01-10T10:51:29.533Z,3.59
2019-01-10T10:54:00.769Z,3.68
2019-01-10T10:56:32.019Z,3.69
2019-01-10T10:59:03.184Z,3.74
2019-01-10T11:01:35.144Z,3.79
2019-01-10T11:04:06.742Z,3.83
2019-01-10T11:06:38.111Z,3.87
2019-01-10T11:09:10.137Z,3.91
2019-01-10T11:11:41.469Z,3.92
2019-01-10T11:14:12.708Z,3.93
2019-01-10T11:16:43.965Z,3.94
2019-01-10T11:19:15.253Z,3.95
2019-01-10T11:21:46.448Z,3.94
2019-01-10T11:24:17.611Z,3.90
2019-01-10T11:26:48.879Z,3.86
2019-01-10T11:29:20.281Z,3.86
2019-01-10T11:31:51.644Z,3.85
2019-01-10T11:34:22.889Z,3.82
2019-01-10T11:36:54.103Z,3.82
2019-01-10T11:39:25.452Z,3.83
2019-01-10T11:41:56.735Z,3.79
2019-01-10T11:44:28.034Z,3.79
2019-01-10T11:46:59.276Z,3.78
2019-01-10T11:49:30.603Z,3.78
2019-01-10T11:52:01.793Z,3.73
2019-01-10T11:54:33.077Z,3.73
2019-01-10T11:57:04.594Z,3.72
2019-01-10T11:59:36.802Z,3.71
2019-01-10T12:02:08.112Z,3.71
2019-01-10T12:04:39.312Z,3.71
2019-01-10T12:07:10.515Z,3.71
2019-01-10T12:09:41.831Z,3.71
2019-01-10T12:12:13.257Z,3.64
2019-01-10T12:14:44.433Z,3.69
2019-01-10T12:17:15.733Z,3.66
2019-01-10T12:19:46.993Z,3.65
2019-01-10T12:22:18.197Z,3.64
2019-01-10T12:24:49.474Z,3.65
2019-01-10T12:27:20.646Z,3.62
2019-01-10T12:29:51.914Z,3.64
2019-01-10T12:32:23.358Z,3.64
2019-01-10T12:34:54.811Z,3.57
2019-01-10T12:37:26.066Z,3.57
2019-01-10T12:39:57.307Z,3.58
2019-01-10T12:42:28.620Z,3.54
2019-01-10T12:44:59.939Z,3.54
2019-01-10T12:47:31.250Z,3.54
2019-01-10T12:50:02.548Z,3.54
2019-01-10T12:52:35.279Z,3.55
2019-01-10T12:55:06.892Z,3.53
2019-01-10T12:57:38.149Z,3.47
2019-01-10T13:00:11.796Z,3.47
2019-01-10T13:02:43.141Z,3.44
2019-01-10T13:05:14.753Z,3.39
2019-01-10T13:07:45.899Z,3.38
2019-01-10T13:10:18.474Z,3.37
2019-01-10T13:12:50.646Z,3.37
2019-01-10T13:15:26.799Z,3.34
2019-01-10T13:17:57.965Z,3.36
2019-01-10T13:20:29.224Z,3.36
2019-01-10T13:23:00.412Z,3.42
2019-01-10T13:25:31.687Z,3.42
2019-01-10T13:28:03.301Z,3.39
2019-01-10T13:30:34.550Z,3.44
2019-01-10T13:33:05.936Z,3.47
2019-01-10T13:35:37.115Z,3.47
2019-01-10T13:38:08.414Z,3.47
2019-01-10T13:40:39.752Z,3.41
2019-01-10T13:43:11.317Z,3.43
2019-01-10T13:45:46.223Z,3.41
2019-01-10T13:48:15.411Z,3.37
2019-01-10T13:50:46.666Z,3.34
2019-01-10T13:53:17.845Z,3.30
2019-01-10T13:55:49.076Z,3.34
2019-01-10T13:58:20.226Z,3.34
2019-01-10T14:00:51.448Z,3.34
2019-01-10T14:03:22.725Z,3.35
2019-01-10T14:05:53.939Z,3.30
2019-01-10T14:08:25.162Z,3.30
2019-01-10T14:10:56.343Z,3.25
2019-01-10T14:13:27.620Z,3.30
2019-01-10T14:15:59.968Z,3.27
2019-01-10T14:18:31.179Z,3.23
2019-01-10T14:21:02.452Z,3.19
2019-01-10T14:23:33.648Z,3.19
2019-01-10T14:26:04.995Z,3.17
2019-01-10T14:28:36.250Z,3.15
2019-01-10T14:31:07.666Z,3.13
2019-01-10T14:33:38.925Z,3.01
2019-01-10T14:36:10.178Z,3.01
2019-01-10T14:38:41.432Z,2.98
2019-01-10T14:41:12.643Z,2.98
2019-01-10T14:43:43.815Z,2.95
2019-01-10T14:46:14.977Z,2.95
2019-01-10T14:48:46.369Z,2.92
2019-01-10T14:51:17.611Z,2.92
2019-01-10T14:53:48.869Z,2.95
2019-01-10T14:56:20.088Z,2.96
2019-01-10T14:58:51.375Z,2.98
2019-01-10T15:01:22.667Z,3.02
2019-01-10T15:03:54.040Z,3.04
2019-01-10T15:06:25.249Z,3.06
2019-01-10T15:08:56.610Z,3.07
2019-01-10T15:11:27.868Z,3.08
2019-01-10T15:13:59.083Z,3.08
2019-01-10T15:16:30.292Z,3.09
2019-01-10T15:19:01.790Z,3.10
2019-01-10T15:21:33.377Z,3.08
2019-01-10T15:24:04.546Z,3.07
2019-01-10T15:26:35.773Z,3.06
2019-01-10T15:29:06.972Z,3.00
2019-01-10T15:31:38.122Z,3.00
2019-01-10T15:34:09.640Z,3.02
2019-01-10T15:36:40.991Z,2.99
2019-01-10T15:39:12.406Z,2.99
2019-01-10T15:41:43.701Z,2.96
2019-01-10T15:44:14.979Z,2.96
2019-01-10T15:46:46.209Z,2.93
2019-01-10T15:49:17.453Z,2.92
2019-01-10T15:51:48.709Z,2.89
2019-01-10T15:54:19.858Z,2.89
2019-01-10T15:56:51.991Z,2.89
2019-01-10T15:59:23.227Z,2.88
2019-01-10T16:01:54.522Z,2.86
2019-01-10T16:04:25.819Z,2.84
2019-01-10T16:06:57.017Z,2.83
2019-01-10T16:09:28.199Z,2.84
2019-01-10T16:11:59.511Z,2.81
2019-01-10T16:14:30.838Z,2.81
2019-01-10T16:17:02.038Z,2.80
2019-01-10T16:19:33.305Z,2.79
2019-01-10T16:22:04.645Z,2.78
2019-01-10T16:24:36.110Z,2.80
2019-01-10T16:27:07.318Z,2.72
2019-01-10T16:29:38.546Z,2.72
2019-01-10T16:32:09.816Z,2.76
2019-01-10T16:34:40.978Z,2.75
2019-01-10T16:37:12.176Z,2.75
2019-01-10T16:39:43.506Z,2.73
2019-01-10T16:42:14.727Z,2.69
2019-01-10T16:44:45.949Z,2.74
2019-01-10T16:47:17.143Z,2.70
2019-01-10T16:49:48.442Z,2.70
2019-01-10T16:52:19.694Z,2.74
2019-01-10T16:54:50.933Z,2.75
2019-01-10T16:57:22.728Z,2.77
2019-01-10T16:59:53.977Z,2.78
2019-01-10T17:02:25.235Z,2.79
2019-01-10T17:04:56.521Z,2.80
2019-01-10T17:07:27.819Z,2.80
2019-01-10T17:09:59.055Z,2.78
2019-01-10T17:12:31.435Z,2.77
2019-01-10T17:15:02.821Z,2.76
2019-01-10T17:17:37.659Z,2.76
2019-01-10T17:20:09.058Z,2.76
2019-01-10T17:22:40.316Z,2.73
2019-01-10T17:25:11.910Z,2.70
2019-01-10T17:27:43.165Z,2.70
2019-01-10T17:30:26.698Z,2.69
2019-01-10T17:32:57.890Z,2.70
2019-01-10T17:35:32.454Z,2.70
2019-01-10T17:38:04.927Z,2.64
2019-01-10T17:40:36.610Z,2.64
2019-01-10T17:43:08.436Z,2.67
2019-01-10T17:45:39.809Z,2.69
2019-01-10T17:48:11.720Z,2.70
2019-01-10T17:50:43.031Z,2.72
2019-01-10T17:53:14.509Z,2.72
2019-01-10T17:55:46.105Z,2.73
2019-01-10T17:58:17.332Z,2.71
2019-01-10T18:00:49.204Z,2.68
2019-01-10T18:03:20.583Z,2.68
2019-01-10T18:05:51.916Z,2.66
2019-01-10T18:08:23.168Z,2.65
2019-01-10T18:10:54.459Z,2.65
2019-01-10T18:13:25.726Z,2.68
2019-01-10T18:15:56.892Z,2.69
2019-01-10T18:18:28.209Z,2.71
2019-01-10T18:20:59.488Z,2.73
2019-01-10T18:23:30.744Z,2.73
2019-01-10T18:26:02.030Z,2.74
2019-01-10T18:28:33.462Z,2.74
2019-01-10T18:31:04.692Z,2.70
2019-01-10T18:33:37.294Z,2.75
2019-01-10T18:36:08.468Z,2.70
2019-01-10T18:38:40.614Z,2.74
2019-01-10T18:41:11.983Z,2.74
2019-01-10T18:43:43.369Z,2.64
2019-01-10T18:46:14.644Z,2.64
2019-01-10T18:48:46.143Z,2.66
2019-01-10T18:51:18.414Z,2.58
2019-01-10T18:53:50.158Z,2.58
2019-01-10T18:56:21.513Z,2.62
2019-01-10T18:58:52.900Z,2.59
2019-01-10T19:01:24.761Z,2.57
2019-01-10T19:03:56.084Z,2.56
2019-01-10T19:06:27.529Z,2.55
2019-01-10T19:08:58.795Z,2.54
2019-01-10T19:11:30.210Z,2.52
2019-01-10T19:14:01.456Z,2.47
2019-01-10T19:16:32.786Z,2.47
2019-01-10T19:19:04.258Z,2.50
2019-01-10T19:21:35.830Z,2.47
2019-01-10T19:24:07.529Z,2.47
2019-01-10T19:26:39.174Z,2.44
2019-01-10T19:29:10.415Z,2.42
2019-01-10T19:31:42.052Z,2.37
2019-01-10T19:34:13.547Z,2.34
2019-01-10T19:36:44.899Z,2.29
2019-01-10T19:39:20.114Z,2.26
2019-01-10T19:41:52.164Z,2.21
2019-01-10T19:44:23.703Z,2.17
2019-01-10T19:46:55.558Z,2.14
2019-01-10T19:49:27.078Z,2.13
2019-01-10T19:51:59.741Z,2.13
2019-01-10T19:54:31.502Z,2.12
2019-01-10T19:57:02.738Z,2.10
2019-01-10T19:59:34.445Z,2.08
2019-01-10T20:02:05.926Z,2.04
2019-01-10T20:04:38.992Z,2.01
2019-01-10T20:07:13.939Z,2.02
2019-01-10T20:09:45.825Z,2.05
2019-01-10T20:12:17.340Z,2.06
2019-01-10T20:14:49.636Z,2.10
2019-01-10T20:17:33.414Z,2.12
2019-01-10T20:20:07.835Z,2.15
2019-01-10T20:22:39.425Z,2.17
2019-01-10T20:25:34.935Z,2.20
2019-01-10T20:28:09.914Z,2.20
2019-01-10T20:30:41.432Z,2.21
2019-01-10T20:33:15.882Z,2.21
2019-01-10T20:35:47.490Z,2.21
2019-01-10T20:38:20.565Z,2.22
2019-01-10T20:40:52.285Z,2.19
2019-01-10T20:43:24.101Z,2.20
2019-01-10T20:46:00.459Z,2.16
2019-01-10T20:48:32.882Z,2.14
2019-01-10T20:51:04.872Z,2.15
2019-01-10T20:53:36.927Z,2.16
2019-01-10T20:56:08.036Z,2.16
2019-01-10T20:58:39.301Z,2.13
2019-01-10T21:01:11.227Z,2.08
2019-01-10T21:03:42.553Z,2.04
2019-01-10T21:06:14.674Z,2.01
2019-01-10T21:08:45.904Z,1.99
2019-01-10T21:11:17.262Z,1.97
2019-01-10T21:13:48.533Z,1.95
2019-01-10T21:16:19.756Z,1.94
2019-01-10T21:18:51.105Z,1.93
2019-01-10T21:21:22.533Z,1.93
2019-01-10T21:23:53.833Z,1.88
2019-01-10T21:26:25.178Z,1.87
2019-01-10T21:28:56.416Z,1.85
2019-01-10T21:31:27.721Z,1.84
2019-01-10T21:33:59.229Z,1.82
2019-01-10T21:36:30.416Z,1.82
2019-01-10T21:39:01.875Z,1.81
2019-01-10T21:41:33.098Z,1.80
2019-01-10T21:44:04.294Z,1.79
2019-01-10T21:46:35.675Z,1.79
2019-01-10T21:49:06.966Z,1.76
2019-01-10T21:51:38.271Z,1.74
2019-01-10T21:54:09.490Z,1.74
2019-01-10T21:56:41.779Z,1.69
2019-01-10T21:59:13.093Z,1.67
2019-01-10T22:01:44.399Z,1.68
2019-01-10T22:04:15.627Z,1.66
2019-01-10T22:06:46.889Z,1.66
2019-01-10T22:09:20.197Z,1.68
2019-01-10T22:11:51.689Z,1.69
2019-01-10T22:14:22.966Z,1.71
2019-01-10T22:16:54.159Z,1.72
2019-01-10T22:19:25.518Z,1.74
2019-01-10T22:21:56.804Z,1.76
2019-01-10T22:24:28.124Z,1.78
2019-01-10T22:26:59.425Z,1.78
2019-01-10T22:29:30.730Z,1.81
2019-01-10T22:32:02.025Z,1.80
2019-01-10T22:34:33.340Z,1.78
2019-01-10T22:37:05.046Z,1.76
2019-01-10T22:39:36.338Z,1.76
2019-01-10T22:42:07.585Z,1.77
2019-01-10T22:44:38.790Z,1.75
2019-01-10T22:47:10.059Z,1.76
2019-01-10T22:49:41.565Z,1.74
2019-01-10T22:52:12.836Z,1.74
2019-01-10T22:54:44.117Z,1.74
2019-01-10T22:57:15.463Z,1.73
2019-01-10T22:59:46.839Z,1.72
2019-01-10T23:02:18.245Z,1.70
2019-01-10T23:04:50.763Z,1.69
2019-01-10T23:07:23.092Z,1.70
2019-01-10T23:10:01.992Z,1.68
2019-01-10T23:12:35.959Z,1.68
2019-01-10T23:15:29.382Z,1.67
2019-01-10T23:18:02.308Z,1.66
2019-01-10T23:20:33.514Z,1.67
2019-01-10T23:23:07.633Z,1.68
2019-01-10T23:25:39.008Z,1.70
2019-01-10T23:28:11.811Z,1.70
2019-01-10T23:30:59.716Z,1.71
2019-01-10T23:33:31.042Z,1.75
2019-01-10T23:36:03.817Z,1.77
2019-01-10T23:38:35.108Z,1.77
2019-01-10T23:41:06.385Z,1.79
2019-01-10T23:43:37.600Z,1.80
2019-01-10T23:46:09.038Z,1.81
2019-01-10T23:48:40.498Z,1.80
2019-01-10T23:51:11.907Z,1.82
2019-01-10T23:53:43.188Z,1.81
2019-01-10T23:56:14.379Z,1.85
2019-01-10T23:58:45.654Z,1.87
